sensor_id;sensor_type;location;lat;lon;timestamp;pressure;altitude;pressure_sealevel;temperature;humidity
33185;BME280;19550;42.872;25.494;2022-07-22T00:00:16;96321.41;;;17.22;100.00
33185;BME280;19550;42.872;25.494;2022-07-22T00:02:43;96323.47;;;17.25;100.00
33185;BME280;19550;42.872;25.494;2022-07-22T00:05:10;96322.19;;;17.22;100.00
33185;BME280;19550;42.872;25.494;2022-07-22T00:07:37;96322.69;;;17.08;100.00
33185;BME280;19550;42.872;25.494;2022-07-22T00:10:06;96314.19;;;17.21;100.00
33185;BME280;19550;42.872;25.494;2022-07-22T00:12:34;96317.06;;;17.24;100.00
33185;BME280;19550;42.872;25.494;2022-07-22T00:15:01;96324.63;;;17.24;100.00
33185;BME280;19550;42.872;25.494;2022-07-22T00:17:30;96319.84;;;17.24;100.00
33185;BME280;19550;42.872;25.494;2022-07-22T00:19:57;96333.63;;;17.14;100.00
33185;BME280;19550;42.872;25.494;2022-07-22T00:22:24;96325.47;;;17.08;100.00
33185;BME280;19550;42.872;25.494;2022-07-22T00:24:51;96329.91;;;17.09;100.00
33185;BME280;19550;42.872;25.494;2022-07-22T00:27:18;96326.34;;;16.93;100.00
33185;BME280;19550;42.872;25.494;2022-07-22T00:29:45;96328.16;;;16.86;100.00
33185;BME280;19550;42.872;25.494;2022-07-22T00:32:12;96326.75;;;16.95;100.00
33185;BME280;19550;42.872;25.494;2022-07-22T00:34:40;96327.69;;;16.99;100.00
33185;BME280;19550;42.872;25.494;2022-07-22T00:37:07;96331.13;;;16.93;100.00
33185;BME280;19550;42.872;25.494;2022-07-22T00:39:35;96319.75;;;16.86;100.00
33185;BME280;19550;42.872;25.494;2022-07-22T00:42:03;96332.75;;;16.78;100.00
33185;BME280;19550;42.872;25.494;2022-07-22T00:44:30;96332.94;;;16.85;100.00
33185;BME280;19550;42.872;25.494;2022-07-22T00:46:57;96325.53;;;16.93;100.00
33185;BME280;19550;42.872;25.494;2022-07-22T00:49:25;96327.06;;;16.90;100.00
33185;BME280;19550;42.872;25.494;2022-07-22T00:51:53;96325.63;;;16.81;100.00
33185;BME280;19550;42.872;25.494;2022-07-22T00:54:20;96327.09;;;16.75;100.00
33185;BME280;19550;42.872;25.494;2022-07-22T00:56:47;96330.69;;;16.75;100.00
33185;BME280;19550;42.872;25.494;2022-07-22T00:59:15;96332.03;;;16.65;100.00
33185;BME280;19550;42.872;25.494;2022-07-22T01:01:42;96327.88;;;16.59;100.00
33185;BME280;19550;42.872;25.494;2022-07-22T01:04:09;96333.13;;;16.61;100.00
33185;BME280;19550;42.872;25.494;2022-07-22T01:06:36;96333.56;;;16.63;100.00
33185;BME280;19550;42.872;25.494;2022-07-22T01:09:04;96332.47;;;16.52;100.00
33185;BME280;19550;42.872;25.494;2022-07-22T01:11:31;96335.63;;;16.50;100.00
33185;BME280;19550;42.872;25.494;2022-07-22T01:13:59;96337.97;;;16.48;100.00
33185;BME280;19550;42.872;25.494;2022-07-22T01:16:26;96328.38;;;16.49;100.00
33185;BME280;19550;42.872;25.494;2022-07-22T01:18:53;96333.75;;;16.54;100.00
33185;BME280;19550;42.872;25.494;2022-07-22T01:21:21;96334.56;;;16.55;100.00
33185;BME280;19550;42.872;25.494;2022-07-22T01:23:48;96332.38;;;16.48;100.00
33185;BME280;19550;42.872;25.494;2022-07-22T01:26:16;96345.81;;;16.43;100.00
33185;BME280;19550;42.872;25.494;2022-07-22T01:28:44;96338.94;;;16.56;100.00
33185;BME280;19550;42.872;25.494;2022-07-22T01:31:11;96339.16;;;16.47;100.00
33185;BME280;19550;42.872;25.494;2022-07-22T01:33:38;96341.50;;;16.45;100.00
33185;BME280;19550;42.872;25.494;2022-07-22T01:36:06;96341.03;;;16.43;100.00
33185;BME280;19550;42.872;25.494;2022-07-22T01:38:35;96335.78;;;16.26;100.00
33185;BME280;19550;42.872;25.494;2022-07-22T01:41:04;96332.19;;;16.25;100.00
33185;BME280;19550;42.872;25.494;2022-07-22T01:43:31;96337.84;;;16.29;100.00
33185;BME280;19550;42.872;25.494;2022-07-22T01:45:58;96337.22;;;16.36;100.00
33185;BME280;19550;42.872;25.494;2022-07-22T01:48:25;96345.53;;;16.32;100.00
33185;BME280;19550;42.872;25.494;2022-07-22T01:50:52;96336.06;;;16.37;100.00
33185;BME280;19550;42.872;25.494;2022-07-22T01:53:19;96343.09;;;16.30;100.00
33185;BME280;19550;42.872;25.494;2022-07-22T01:55:48;96343.56;;;16.33;100.00
33185;BME280;19550;42.872;25.494;2022-07-22T01:58:15;96342.38;;;16.34;100.00
33185;BME280;19550;42.872;25.494;2022-07-22T02:00:42;96337.22;;;16.36;100.00
33185;BME280;19550;42.872;25.494;2022-07-22T02:03:10;96342.13;;;16.39;100.00
33185;BME280;19550;42.872;25.494;2022-07-22T02:05:37;96345.72;;;16.39;100.00
33185;BME280;19550;42.872;25.494;2022-07-22T02:08:06;96346.00;;;16.34;100.00
33185;BME280;19550;42.872;25.494;2022-07-22T02:10:33;96342.09;;;16.23;100.00
33185;BME280;19550;42.872;25.494;2022-07-22T02:13:02;96347.31;;;16.24;100.00
33185;BME280;19550;42.872;25.494;2022-07-22T02:15:30;96350.38;;;16.19;100.00
33185;BME280;19550;42.872;25.494;2022-07-22T02:17:57;96346.22;;;16.13;100.00
33185;BME280;19550;42.872;25.494;2022-07-22T02:20:24;96346.94;;;16.10;100.00
33185;BME280;19550;42.872;25.494;2022-07-22T02:22:51;96345.97;;;16.18;100.00
33185;BME280;19550;42.872;25.494;2022-07-22T02:25:18;96351.81;;;16.13;100.00
33185;BME280;19550;42.872;25.494;2022-07-22T02:27:45;96346.03;;;16.06;100.00
33185;BME280;19550;42.872;25.494;2022-07-22T02:30:14;96352.19;;;16.12;100.00
33185;BME280;19550;42.872;25.494;2022-07-22T02:32:41;96352.31;;;16.03;100.00
33185;BME280;19550;42.872;25.494;2022-07-22T02:35:08;96354.09;;;15.96;100.00
33185;BME280;19550;42.872;25.494;2022-07-22T02:37:36;96349.25;;;15.93;100.00
33185;BME280;19550;42.872;25.494;2022-07-22T02:40:05;96356.00;;;15.92;100.00
33185;BME280;19550;42.872;25.494;2022-07-22T02:42:33;96352.03;;;15.93;100.00
33185;BME280;19550;42.872;25.494;2022-07-22T02:45:00;96344.56;;;15.97;100.00
33185;BME280;19550;42.872;25.494;2022-07-22T02:47:28;96352.84;;;15.93;100.00
33185;BME280;19550;42.872;25.494;2022-07-22T02:49:56;96348.91;;;15.94;100.00
33185;BME280;19550;42.872;25.494;2022-07-22T02:52:23;96340.41;;;15.90;100.00
33185;BME280;19550;42.872;25.494;2022-07-22T02:54:50;96349.84;;;15.86;100.00
33185;BME280;19550;42.872;25.494;2022-07-22T02:57:17;96349.38;;;15.84;100.00
33185;BME280;19550;42.872;25.494;2022-07-22T02:59:44;96346.25;;;15.85;100.00
33185;BME280;19550;42.872;25.494;2022-07-22T03:02:11;96344.53;;;15.81;100.00
33185;BME280;19550;42.872;25.494;2022-07-22T03:04:39;96346.50;;;15.80;100.00
33185;BME280;19550;42.872;25.494;2022-07-22T03:07:06;96349.50;;;15.87;100.00
33185;BME280;19550;42.872;25.494;2022-07-22T03:09:33;96353.47;;;15.86;100.00
33185;BME280;19550;42.872;25.494;2022-07-22T03:12:00;96352.66;;;15.86;100.00
33185;BME280;19550;42.872;25.494;2022-07-22T03:14:27;96355.09;;;15.87;100.00
33185;BME280;19550;42.872;25.494;2022-07-22T03:16:54;96349.03;;;15.85;100.00
33185;BME280;19550;42.872;25.494;2022-07-22T03:19:21;96343.53;;;15.89;100.00
33185;BME280;19550;42.872;25.494;2022-07-22T03:21:50;96349.38;;;15.84;100.00
33185;BME280;19550;42.872;25.494;2022-07-22T03:24:17;96358.31;;;15.89;100.00
33185;BME280;19550;42.872;25.494;2022-07-22T03:26:44;96354.06;;;15.80;100.00
33185;BME280;19550;42.872;25.494;2022-07-22T03:29:11;96342.03;;;15.92;100.00
33185;BME280;19550;42.872;25.494;2022-07-22T03:31:38;96353.50;;;16.02;100.00
33185;BME280;19550;42.872;25.494;2022-07-22T03:34:05;96352.09;;;16.08;100.00
33185;BME280;19550;42.872;25.494;2022-07-22T03:36:32;96352.28;;;16.15;100.00
33185;BME280;19550;42.872;25.494;2022-07-22T03:39:00;96358.66;;;16.16;100.00
33185;BME280;19550;42.872;25.494;2022-07-22T03:41:27;96356.00;;;16.19;100.00
33185;BME280;19550;42.872;25.494;2022-07-22T03:43:54;96356.66;;;16.28;100.00
33185;BME280;19550;42.872;25.494;2022-07-22T03:46:21;96352.03;;;16.36;100.00
33185;BME280;19550;42.872;25.494;2022-07-22T03:48:48;96351.97;;;16.48;100.00
33185;BME280;19550;42.872;25.494;2022-07-22T03:51:15;96357.38;;;16.57;100.00
33185;BME280;19550;42.872;25.494;2022-07-22T03:53:42;96358.75;;;16.63;100.00
33185;BME280;19550;42.872;25.494;2022-07-22T03:56:11;96355.44;;;16.73;100.00
33185;BME280;19550;42.872;25.494;2022-07-22T03:58:38;96365.91;;;16.92;100.00
33185;BME280;19550;42.872;25.494;2022-07-22T04:01:05;96368.53;;;17.00;100.00
33185;BME280;19550;42.872;25.494;2022-07-22T04:03:32;96363.63;;;17.13;100.00
33185;BME280;19550;42.872;25.494;2022-07-22T04:05:59;96364.59;;;17.21;100.00
33185;BME280;19550;42.872;25.494;2022-07-22T04:08:26;96380.78;;;17.27;100.00
33185;BME280;19550;42.872;25.494;2022-07-22T04:10:53;96374.69;;;17.41;100.00
33185;BME280;19550;42.872;25.494;2022-07-22T04:13:22;96369.75;;;17.54;100.00
33185;BME280;19550;42.872;25.494;2022-07-22T04:15:49;96370.38;;;17.63;100.00
33185;BME280;19550;42.872;25.494;2022-07-22T04:18:16;96373.50;;;17.77;100.00
33185;BME280;19550;42.872;25.494;2022-07-22T04:20:43;96376.91;;;17.67;100.00
33185;BME280;19550;42.872;25.494;2022-07-22T04:23:10;96376.41;;;17.80;100.00
33185;BME280;19550;42.872;25.494;2022-07-22T04:25:37;96373.00;;;17.91;100.00
33185;BME280;19550;42.872;25.494;2022-07-22T04:28:04;96380.97;;;18.08;100.00
33185;BME280;19550;42.872;25.494;2022-07-22T04:30:33;96382.34;;;18.17;100.00
33185;BME280;19550;42.872;25.494;2022-07-22T04:33:00;96381.09;;;18.34;99.67
33185;BME280;19550;42.872;25.494;2022-07-22T04:35:27;96385.81;;;18.30;99.89
33185;BME280;19550;42.872;25.494;2022-07-22T04:37:54;96385.78;;;18.49;98.94
33185;BME280;19550;42.872;25.494;2022-07-22T04:40:21;96386.28;;;18.55;98.52
33185;BME280;19550;42.872;25.494;2022-07-22T04:42:48;96388.53;;;18.65;97.75
33185;BME280;19550;42.872;25.494;2022-07-22T04:45:15;96388.22;;;18.70;98.00
33185;BME280;19550;42.872;25.494;2022-07-22T04:47:44;96395.25;;;18.83;97.50
33185;BME280;19550;42.872;25.494;2022-07-22T04:50:11;96393.19;;;19.03;96.91
33185;BME280;19550;42.872;25.494;2022-07-22T04:52:38;96395.56;;;19.24;95.68
33185;BME280;19550;42.872;25.494;2022-07-22T04:55:06;96399.19;;;19.24;95.84
33185;BME280;19550;42.872;25.494;2022-07-22T04:57:33;96402.47;;;19.30;95.19
33185;BME280;19550;42.872;25.494;2022-07-22T05:00:00;96400.25;;;19.42;94.12
33185;BME280;19550;42.872;25.494;2022-07-22T05:02:27;96405.31;;;19.56;93.50
33185;BME280;19550;42.872;25.494;2022-07-22T05:04:55;96403.97;;;19.73;93.20
33185;BME280;19550;42.872;25.494;2022-07-22T05:07:22;96403.94;;;19.99;92.23
33185;BME280;19550;42.872;25.494;2022-07-22T05:09:49;96403.44;;;20.23;90.54
33185;BME280;19550;42.872;25.494;2022-07-22T05:12:16;96407.31;;;20.42;89.66
33185;BME280;19550;42.872;25.494;2022-07-22T05:14:43;96414.63;;;20.46;89.93
33185;BME280;19550;42.872;25.494;2022-07-22T05:17:11;96412.00;;;20.64;89.01
33185;BME280;19550;42.872;25.494;2022-07-22T05:19:38;96423.06;;;20.83;88.66
33185;BME280;19550;42.872;25.494;2022-07-22T05:22:07;96415.19;;;20.99;87.73
33185;BME280;19550;42.872;25.494;2022-07-22T05:24:34;96420.97;;;21.14;86.65
33185;BME280;19550;42.872;25.494;2022-07-22T05:27:01;96415.44;;;21.24;87.00
33185;BME280;19550;42.872;25.494;2022-07-22T05:29:28;96410.34;;;21.40;85.87
33185;BME280;19550;42.872;25.494;2022-07-22T05:31:56;96408.09;;;21.60;85.58
33185;BME280;19550;42.872;25.494;2022-07-22T05:34:23;96414.31;;;21.87;83.76
33185;BME280;19550;42.872;25.494;2022-07-22T05:36:50;96412.00;;;22.03;83.18
33185;BME280;19550;42.872;25.494;2022-07-22T05:39:19;96407.97;;;22.08;82.81
33185;BME280;19550;42.872;25.494;2022-07-22T05:41:46;96417.81;;;22.35;81.80
33185;BME280;19550;42.872;25.494;2022-07-22T05:44:13;96421.53;;;22.57;81.16
33185;BME280;19550;42.872;25.494;2022-07-22T05:46:41;96420.41;;;22.76;80.62
33185;BME280;19550;42.872;25.494;2022-07-22T05:49:08;96418.41;;;22.94;79.52
33185;BME280;19550;42.872;25.494;2022-07-22T05:51:35;96420.88;;;22.99;79.78
33185;BME280;19550;42.872;25.494;2022-07-22T05:54:02;96432.19;;;23.17;78.08
33185;BME280;19550;42.872;25.494;2022-07-22T05:56:31;96426.97;;;23.29;77.98
33185;BME280;19550;42.872;25.494;2022-07-22T05:58:58;96433.91;;;23.53;77.02
33185;BME280;19550;42.872;25.494;2022-07-22T06:01:25;96427.78;;;23.76;77.18
33185;BME280;19550;42.872;25.494;2022-07-22T06:03:52;96430.59;;;24.01;76.70
33185;BME280;19550;42.872;25.494;2022-07-22T06:06:19;96433.81;;;24.24;75.45
33185;BME280;19550;42.872;25.494;2022-07-22T06:08:46;96432.13;;;24.44;74.48
33185;BME280;19550;42.872;25.494;2022-07-22T06:11:14;96420.69;;;24.62;74.32
33185;BME280;19550;42.872;25.494;2022-07-22T06:13:42;96423.06;;;24.78;72.95
33185;BME280;19550;42.872;25.494;2022-07-22T06:16:09;96432.75;;;24.84;72.78
33185;BME280;19550;42.872;25.494;2022-07-22T06:18:36;96427.38;;;25.11;71.97
33185;BME280;19550;42.872;25.494;2022-07-22T06:21:04;96427.22;;;25.32;71.28
33185;BME280;19550;42.872;25.494;2022-07-22T06:23:33;96431.09;;;25.59;69.82
33185;BME280;19550;42.872;25.494;2022-07-22T06:26:00;96427.81;;;25.64;68.61
33185;BME280;19550;42.872;25.494;2022-07-22T06:28:27;96431.13;;;25.52;67.49
33185;BME280;19550;42.872;25.494;2022-07-22T06:30:55;96427.69;;;25.75;67.83
33185;BME280;19550;42.872;25.494;2022-07-22T06:33:23;96428.19;;;26.07;66.43
33185;BME280;19550;42.872;25.494;2022-07-22T06:35:50;96431.53;;;26.40;63.01
33185;BME280;19550;42.872;25.494;2022-07-22T06:38:17;96430.47;;;26.61;62.89
33185;BME280;19550;42.872;25.494;2022-07-22T06:40:44;96427.31;;;26.89;59.98
33185;BME280;19550;42.872;25.494;2022-07-22T06:43:11;96418.97;;;27.05;58.81
33185;BME280;19550;42.872;25.494;2022-07-22T06:45:38;96427.13;;;27.30;58.39
33185;BME280;19550;42.872;25.494;2022-07-22T06:48:06;96430.72;;;27.61;57.93
33185;BME280;19550;42.872;25.494;2022-07-22T06:50:33;96426.91;;;27.71;55.96
33185;BME280;19550;42.872;25.494;2022-07-22T06:53:00;96427.28;;;27.96;55.37
33185;BME280;19550;42.872;25.494;2022-07-22T06:55:28;96433.38;;;27.98;55.43
33185;BME280;19550;42.872;25.494;2022-07-22T06:57:55;96439.28;;;28.07;54.88
33185;BME280;19550;42.872;25.494;2022-07-22T07:00:22;96439.19;;;28.15;50.42
33185;BME280;19550;42.872;25.494;2022-07-22T07:02:49;96441.72;;;28.09;48.99
33185;BME280;19550;42.872;25.494;2022-07-22T07:05:17;96451.78;;;28.14;49.22
33185;BME280;19550;42.872;25.494;2022-07-22T07:07:44;96444.63;;;28.29;48.43
33185;BME280;19550;42.872;25.494;2022-07-22T07:10:11;96447.91;;;28.27;48.18
33185;BME280;19550;42.872;25.494;2022-07-22T07:12:40;96450.34;;;28.29;49.39
33185;BME280;19550;42.872;25.494;2022-07-22T07:15:08;96454.88;;;28.46;47.83
33185;BME280;19550;42.872;25.494;2022-07-22T07:17:35;96463.78;;;28.52;47.63
33185;BME280;19550;42.872;25.494;2022-07-22T07:20:06;96459.66;;;28.72;47.35
33185;BME280;19550;42.872;25.494;2022-07-22T07:22:34;96466.53;;;28.98;45.72
33185;BME280;19550;42.872;25.494;2022-07-22T07:25:03;96460.16;;;28.91;45.19
33185;BME280;19550;42.872;25.494;2022-07-22T07:27:31;96465.56;;;28.85;45.55
33185;BME280;19550;42.872;25.494;2022-07-22T07:29:58;96471.41;;;28.98;45.62
33185;BME280;19550;42.872;25.494;2022-07-22T07:32:25;96464.00;;;29.00;44.61
33185;BME280;19550;42.872;25.494;2022-07-22T07:34:52;96472.22;;;29.18;45.18
33185;BME280;19550;42.872;25.494;2022-07-22T07:37:19;96463.69;;;29.34;45.54
33185;BME280;19550;42.872;25.494;2022-07-22T07:39:47;96464.03;;;29.56;44.76
33185;BME280;19550;42.872;25.494;2022-07-22T07:42:15;96466.94;;;29.52;45.78
33185;BME280;19550;42.872;25.494;2022-07-22T07:44:42;96467.16;;;29.61;44.77
33185;BME280;19550;42.872;25.494;2022-07-22T07:47:09;96472.97;;;29.74;44.69
33185;BME280;19550;42.872;25.494;2022-07-22T07:49:36;96476.34;;;29.85;44.03
33185;BME280;19550;42.872;25.494;2022-07-22T07:52:03;96472.25;;;29.86;43.22
33185;BME280;19550;42.872;25.494;2022-07-22T07:54:30;96474.97;;;30.10;43.61
33185;BME280;19550;42.872;25.494;2022-07-22T07:56:59;96472.63;;;30.21;42.54
33185;BME280;19550;42.872;25.494;2022-07-22T07:59:26;96468.97;;;30.20;43.48
33185;BME280;19550;42.872;25.494;2022-07-22T08:01:53;96477.91;;;30.06;42.58
33185;BME280;19550;42.872;25.494;2022-07-22T08:04:20;96477.66;;;30.00;42.98
33185;BME280;19550;42.872;25.494;2022-07-22T08:06:47;96483.28;;;30.20;42.49
33185;BME280;19550;42.872;25.494;2022-07-22T08:09:14;96474.78;;;30.17;42.62
33185;BME280;19550;42.872;25.494;2022-07-22T08:11:42;96478.19;;;30.12;42.54
33185;BME280;19550;42.872;25.494;2022-07-22T08:14:11;96477.22;;;30.18;42.35
33185;BME280;19550;42.872;25.494;2022-07-22T08:16:38;96472.72;;;30.33;42.25
33185;BME280;19550;42.872;25.494;2022-07-22T08:19:05;96477.69;;;30.46;42.36
33185;BME280;19550;42.872;25.494;2022-07-22T08:21:32;96471.34;;;30.70;41.97
33185;BME280;19550;42.872;25.494;2022-07-22T08:24:00;96467.75;;;30.66;40.41
33185;BME280;19550;42.872;25.494;2022-07-22T08:26:27;96474.56;;;30.85;41.38
33185;BME280;19550;42.872;25.494;2022-07-22T08:28:54;96474.16;;;30.99;41.86
33185;BME280;19550;42.872;25.494;2022-07-22T08:31:22;96474.28;;;30.96;41.20
33185;BME280;19550;42.872;25.494;2022-07-22T08:33:49;96470.63;;;30.95;41.35
33185;BME280;19550;42.872;25.494;2022-07-22T08:36:16;96467.97;;;31.17;41.28
33185;BME280;19550;42.872;25.494;2022-07-22T08:38:43;96463.88;;;31.56;42.10
33185;BME280;19550;42.872;25.494;2022-07-22T08:41:13;96474.56;;;31.55;40.04
33185;BME280;19550;42.872;25.494;2022-07-22T08:43:41;96479.47;;;31.55;40.02
33185;BME280;19550;42.872;25.494;2022-07-22T08:46:09;96486.31;;;31.45;40.56
33185;BME280;19550;42.872;25.494;2022-07-22T08:48:39;96477.44;;;31.68;39.92
33185;BME280;19550;42.872;25.494;2022-07-22T08:51:06;96472.06;;;31.70;39.52
33185;BME280;19550;42.872;25.494;2022-07-22T08:53:34;96474.00;;;31.86;40.66
33185;BME280;19550;42.872;25.494;2022-07-22T08:56:01;96483.63;;;31.92;40.79
33185;BME280;19550;42.872;25.494;2022-07-22T08:58:28;96485.22;;;32.06;40.46
33185;BME280;19550;42.872;25.494;2022-07-22T09:01:06;96489.38;;;32.30;39.84
33185;BME280;19550;42.872;25.494;2022-07-22T09:03:45;96496.22;;;32.45;38.94
33185;BME280;19550;42.872;25.494;2022-07-22T09:06:12;96484.72;;;32.45;39.29
33185;BME280;19550;42.872;25.494;2022-07-22T09:08:56;96494.13;;;32.71;39.28
33185;BME280;19550;42.872;25.494;2022-07-22T09:11:25;96493.25;;;32.36;39.20
33185;BME280;19550;42.872;25.494;2022-07-22T09:13:54;96490.75;;;32.00;39.96
33185;BME280;19550;42.872;25.494;2022-07-22T09:16:44;96495.00;;;32.08;40.00
33185;BME280;19550;42.872;25.494;2022-07-22T09:19:13;96487.41;;;32.27;39.95
33185;BME280;19550;42.872;25.494;2022-07-22T09:21:41;96490.75;;;32.72;40.14
33185;BME280;19550;42.872;25.494;2022-07-22T09:24:25;96498.09;;;33.08;38.58
33185;BME280;19550;42.872;25.494;2022-07-22T09:26:54;96489.50;;;33.30;38.28
33185;BME280;19550;42.872;25.494;2022-07-22T09:29:22;96501.63;;;33.12;38.59
33185;BME280;19550;42.872;25.494;2022-07-22T09:31:50;96501.88;;;33.05;38.49
33185;BME280;19550;42.872;25.494;2022-07-22T09:34:26;96498.84;;;33.21;38.92
33185;BME280;19550;42.872;25.494;2022-07-22T09:36:54;96494.47;;;33.38;38.71
33185;BME280;19550;42.872;25.494;2022-07-22T09:39:24;96491.75;;;33.57;38.91
33185;BME280;19550;42.872;25.494;2022-07-22T09:41:56;96491.47;;;33.64;38.71
33185;BME280;19550;42.872;25.494;2022-07-22T09:44:24;96495.06;;;33.55;38.44
33185;BME280;19550;42.872;25.494;2022-07-22T09:46:51;96481.16;;;33.53;37.62
33185;BME280;19550;42.872;25.494;2022-07-22T09:49:32;96486.25;;;33.06;38.47
33185;BME280;19550;42.872;25.494;2022-07-22T09:52:00;96496.00;;;33.52;39.79
33185;BME280;19550;42.872;25.494;2022-07-22T09:54:28;96492.91;;;33.90;37.94
33185;BME280;19550;42.872;25.494;2022-07-22T09:56:55;96493.53;;;33.94;38.15
33185;BME280;19550;42.872;25.494;2022-07-22T09:59:23;96488.63;;;34.04;37.42
33185;BME280;19550;42.872;25.494;2022-07-22T10:01:54;96495.56;;;33.84;37.45
33185;BME280;19550;42.872;25.494;2022-07-22T10:04:23;96495.56;;;33.84;36.46
33185;BME280;19550;42.872;25.494;2022-07-22T10:06:53;96489.50;;;33.82;36.71
33185;BME280;19550;42.872;25.494;2022-07-22T10:09:21;96488.94;;;34.06;36.94
33185;BME280;19550;42.872;25.494;2022-07-22T10:11:48;96493.72;;;34.00;37.35
33185;BME280;19550;42.872;25.494;2022-07-22T10:14:17;96503.50;;;34.11;36.37
33185;BME280;19550;42.872;25.494;2022-07-22T10:16:45;96498.66;;;33.68;36.95
33185;BME280;19550;42.872;25.494;2022-07-22T10:19:13;96497.75;;;34.11;36.29
33185;BME280;19550;42.872;25.494;2022-07-22T10:21:40;96497.34;;;34.22;36.01
33185;BME280;19550;42.872;25.494;2022-07-22T10:24:14;96485.28;;;34.63;35.61
33185;BME280;19550;42.872;25.494;2022-07-22T10:26:48;96491.06;;;34.73;35.99
33185;BME280;19550;42.872;25.494;2022-07-22T10:29:29;96489.91;;;34.61;35.66
33185;BME280;19550;42.872;25.494;2022-07-22T10:32:22;96487.25;;;34.76;35.26
33185;BME280;19550;42.872;25.494;2022-07-22T10:35:21;96493.50;;;34.25;34.23
33185;BME280;19550;42.872;25.494;2022-07-22T10:37:49;96480.63;;;34.66;33.68
33185;BME280;19550;42.872;25.494;2022-07-22T10:40:20;96488.03;;;34.85;33.21
33185;BME280;19550;42.872;25.494;2022-07-22T10:43:04;96493.50;;;35.01;33.23
33185;BME280;19550;42.872;25.494;2022-07-22T10:45:33;96494.31;;;35.29;33.31
33185;BME280;19550;42.872;25.494;2022-07-22T10:48:03;96500.38;;;35.40;31.67
33185;BME280;19550;42.872;25.494;2022-07-22T10:50:50;96487.56;;;34.96;32.56
33185;BME280;19550;42.872;25.494;2022-07-22T10:53:20;96492.84;;;35.16;32.57
33185;BME280;19550;42.872;25.494;2022-07-22T10:56:05;96499.19;;;34.65;31.59
33185;BME280;19550;42.872;25.494;2022-07-22T10:58:56;96499.09;;;35.05;32.65
33185;BME280;19550;42.872;25.494;2022-07-22T11:01:27;96501.16;;;35.50;32.55
33185;BME280;19550;42.872;25.494;2022-07-22T11:03:55;96498.88;;;35.72;30.48
33185;BME280;19550;42.872;25.494;2022-07-22T11:06:25;96503.03;;;35.80;30.70
33185;BME280;19550;42.872;25.494;2022-07-22T11:08:54;96504.38;;;34.97;30.47
33185;BME280;19550;42.872;25.494;2022-07-22T11:11:41;96496.03;;;35.45;31.02
33185;BME280;19550;42.872;25.494;2022-07-22T11:14:26;96504.38;;;35.43;30.49
33185;BME280;19550;42.872;25.494;2022-07-22T11:16:55;96508.16;;;35.67;30.81
33185;BME280;19550;42.872;25.494;2022-07-22T11:19:24;96500.28;;;35.77;29.89
33185;BME280;19550;42.872;25.494;2022-07-22T11:21:54;96492.88;;;35.94;29.19
33185;BME280;19550;42.872;25.494;2022-07-22T11:24:22;96493.84;;;35.91;28.90
33185;BME280;19550;42.872;25.494;2022-07-22T11:26:52;96498.84;;;36.23;28.43
33185;BME280;19550;42.872;25.494;2022-07-22T11:29:25;96487.69;;;36.73;28.56
33185;BME280;19550;42.872;25.494;2022-07-22T11:31:53;96493.84;;;37.05;28.90
33185;BME280;19550;42.872;25.494;2022-07-22T11:34:21;96493.25;;;37.00;28.35
33185;BME280;19550;42.872;25.494;2022-07-22T11:36:50;96502.09;;;36.16;28.40
33185;BME280;19550;42.872;25.494;2022-07-22T11:39:19;96499.22;;;36.49;29.11
33185;BME280;19550;42.872;25.494;2022-07-22T11:41:47;96493.69;;;37.08;28.52
33185;BME280;19550;42.872;25.494;2022-07-22T11:44:19;96486.66;;;37.00;27.86
33185;BME280;19550;42.872;25.494;2022-07-22T11:46:47;96486.13;;;36.87;27.73
33185;BME280;19550;42.872;25.494;2022-07-22T11:49:16;96493.84;;;36.33;27.23
33185;BME280;19550;42.872;25.494;2022-07-22T11:51:43;96493.47;;;36.40;27.98
33185;BME280;19550;42.872;25.494;2022-07-22T11:54:11;96483.56;;;37.03;27.92
33185;BME280;19550;42.872;25.494;2022-07-22T11:56:38;96492.25;;;37.03;28.33
33185;BME280;19550;42.872;25.494;2022-07-22T11:59:07;96497.69;;;37.64;27.40
33185;BME280;19550;42.872;25.494;2022-07-22T12:01:36;96489.69;;;37.59;28.22
33185;BME280;19550;42.872;25.494;2022-07-22T12:04:05;96489.50;;;38.06;28.49
33185;BME280;19550;42.872;25.494;2022-07-22T12:06:33;96489.72;;;37.88;26.18
33185;BME280;19550;42.872;25.494;2022-07-22T12:09:05;96486.00;;;37.73;26.55
33185;BME280;19550;42.872;25.494;2022-07-22T12:11:34;96495.81;;;37.75;26.85
33185;BME280;19550;42.872;25.494;2022-07-22T12:14:05;96485.91;;;36.76;27.16
33185;BME280;19550;42.872;25.494;2022-07-22T12:16:33;96483.28;;;37.01;27.85
33185;BME280;19550;42.872;25.494;2022-07-22T12:19:03;96482.78;;;37.27;27.63
33185;BME280;19550;42.872;25.494;2022-07-22T12:21:32;96473.72;;;37.49;27.57
33185;BME280;19550;42.872;25.494;2022-07-22T12:24:01;96469.50;;;37.20;27.00
33185;BME280;19550;42.872;25.494;2022-07-22T12:26:42;96473.63;;;37.87;26.93
33185;BME280;19550;42.872;25.494;2022-07-22T12:29:18;96472.25;;;38.32;27.58
33185;BME280;19550;42.872;25.494;2022-07-22T12:31:48;96456.44;;;37.98;26.72
33185;BME280;19550;42.872;25.494;2022-07-22T12:34:28;96458.88;;;38.49;26.83
33185;BME280;19550;42.872;25.494;2022-07-22T12:36:56;96466.78;;;38.34;26.25
33185;BME280;19550;42.872;25.494;2022-07-22T12:39:23;96474.72;;;38.54;26.42
33185;BME280;19550;42.872;25.494;2022-07-22T12:41:51;96472.91;;;38.56;26.11
33185;BME280;19550;42.872;25.494;2022-07-22T12:44:20;96462.84;;;37.88;26.00
33185;BME280;19550;42.872;25.494;2022-07-22T12:46:48;96460.53;;;38.21;25.96
33185;BME280;19550;42.872;25.494;2022-07-22T12:49:20;96462.53;;;38.50;25.71
33185;BME280;19550;42.872;25.494;2022-07-22T12:52:10;96464.63;;;38.14;26.12